Portada
METAR-TAF:

METAR-TAF

Aeroports :

Hermosillo, Mèxic

latitud: 29-04N, longitud: 110-57W, altitud: 211 m

Observació

L'informe es va fer fa 5 hores i 40 minuts, a les 05:40 UTC
Vent calma
Temperatura 25°C
Humitat 69%
Pressió 1012 hPa
Visibilitat: 16.1 km
Cel clar

METAR: MMHO 230540Z 00000KT 10SM SKC 25/19 A2988 RMK SLP113 52009 922 HZY

Hora: 04:20 (11:20 UTC)

Pronòstic

L'informe es va fer fa 7 hores i 9 minuts, a les 04:11 UTC
Pronòstic vàlid del 23 a les 06 UTC al 24 a les 06 UTC
Vent kt del Nord
Visibilitat: 10 km
Cel clar
A partir de les 23 a les 1800 UTC
Vent 10 kt del Sud/Sud-Oest
Visibilitat: 10 km
Cel clar
A partir de les 24 a les 0400 UTC
Vent 5 kt del Oest/Sud-Oest
Visibilitat: 9.7 km
Cel clar
calitja

TAF: MMHO 230411Z 2306/2406 00000KT P6SM SKC FM231800 20010KT P6SM SKC FM240400 24005KT 6SM HZ SKC

Observacions i pronòstics meteorològics de més de 4000 aeroports (METAR i TAF).

Les estacions disponibles són els punts grocs i vermells al mapa.

Posi el ratolí al punt desitjat per veure el nom de l'estació.

Feu clic per veure les observacions i els pronòstics meteorològics.

Per canviar el mapa: feu clic els botons verds amb una creu de color negre per apropar; al botó verd amb un guió per allunyar la imatge; o en les fletxes verdes per a mapes adjacents.


METAR-TAF: